sensor_id;sensor_type;location;lat;lon;timestamp;pressure;altitude;pressure_sealevel;temperature;humidity
74680;BME280;63211;48.548;2.704;2023-10-08T00:02:05;101858.09;;;19.26;62.79
74680;BME280;63211;48.548;2.704;2023-10-08T00:04:32;101858.69;;;19.21;62.71
74680;BME280;63211;48.548;2.704;2023-10-08T00:07:02;101863.94;;;19.23;62.81
74680;BME280;63211;48.548;2.704;2023-10-08T00:09:29;101859.31;;;19.23;62.78
74680;BME280;63211;48.548;2.704;2023-10-08T00:12:01;101868.38;;;19.24;62.80
74680;BME280;63211;48.548;2.704;2023-10-08T00:14:28;101868.56;;;19.22;63.01
74680;BME280;63211;48.548;2.704;2023-10-08T00:16:55;101865.84;;;19.22;62.84
74680;BME280;63211;48.548;2.704;2023-10-08T00:19:23;101877.59;;;19.23;63.02
74680;BME280;63211;48.548;2.704;2023-10-08T00:21:49;101874.03;;;19.22;63.00
74680;BME280;63211;48.548;2.704;2023-10-08T00:24:18;101879.69;;;19.21;63.25
74680;BME280;63211;48.548;2.704;2023-10-08T00:26:52;101868.75;;;19.21;62.95
74680;BME280;63211;48.548;2.704;2023-10-08T00:29:20;101868.75;;;19.21;63.18
74680;BME280;63211;48.548;2.704;2023-10-08T00:31:48;101870.66;;;19.20;63.25
74680;BME280;63211;48.548;2.704;2023-10-08T00:34:15;101873.59;;;19.19;63.37
74680;BME280;63211;48.548;2.704;2023-10-08T00:36:47;101869.16;;;19.18;63.37
74680;BME280;63211;48.548;2.704;2023-10-08T00:39:14;101881.56;;;19.20;63.27
74680;BME280;63211;48.548;2.704;2023-10-08T00:41:48;101872.09;;;19.16;62.89
74680;BME280;63211;48.548;2.704;2023-10-08T00:44:16;101876.75;;;19.22;62.83
74680;BME280;63211;48.548;2.704;2023-10-08T00:46:48;101874.03;;;19.22;62.71
74680;BME280;63211;48.548;2.704;2023-10-08T00:49:16;101869.41;;;19.23;62.80
74680;BME280;63211;48.548;2.704;2023-10-08T00:51:54;101867.53;;;19.23;62.75
74680;BME280;63211;48.548;2.704;2023-10-08T00:54:51;101867.72;;;19.22;62.53
74680;BME280;63211;48.548;2.704;2023-10-08T00:57:30;101866.69;;;19.23;62.75
74680;BME280;63211;48.548;2.704;2023-10-08T01:00:00;101866.69;;;19.23;62.99
74680;BME280;63211;48.548;2.704;2023-10-08T01:02:31;101866.03;;;19.21;63.08
74680;BME280;63211;48.548;2.704;2023-10-08T01:05:09;101868.75;;;19.21;63.02
74680;BME280;63211;48.548;2.704;2023-10-08T01:07:39;101865.19;;;19.20;63.17
74680;BME280;63211;48.548;2.704;2023-10-08T01:10:10;101867.91;;;19.20;63.01
74680;BME280;63211;48.548;2.704;2023-10-08T01:12:39;101854.44;;;19.12;63.20
74680;BME280;63211;48.548;2.704;2023-10-08T01:15:21;101850.25;;;19.16;63.46
74680;BME280;63211;48.548;2.704;2023-10-08T01:17:54;101864.53;;;19.18;63.58
74680;BME280;63211;48.548;2.704;2023-10-08T01:20:26;101861.19;;;19.16;63.47
74680;BME280;63211;48.548;2.704;2023-10-08T01:23:01;101850.03;;;19.11;63.64
74680;BME280;63211;48.548;2.704;2023-10-08T01:25:36;101856.56;;;19.17;63.44
74680;BME280;63211;48.548;2.704;2023-10-08T01:28:03;101853.81;;;19.17;63.53
74680;BME280;63211;48.548;2.704;2023-10-08T01:30:34;101850.88;;;19.12;63.84
74680;BME280;63211;48.548;2.704;2023-10-08T01:33:07;101856.13;;;19.13;63.32
74680;BME280;63211;48.548;2.704;2023-10-08T01:35:36;101859.50;;;19.15;63.08
74680;BME280;63211;48.548;2.704;2023-10-08T01:38:05;101857.41;;;19.17;62.98
74680;BME280;63211;48.548;2.704;2023-10-08T01:40:32;101853.44;;;19.20;62.73
74680;BME280;63211;48.548;2.704;2023-10-08T01:42:59;101856.16;;;19.20;62.61
74680;BME280;63211;48.548;2.704;2023-10-08T01:45:26;101846.47;;;19.17;62.72
74680;BME280;63211;48.548;2.704;2023-10-08T01:47:53;101852.59;;;19.19;62.89
74680;BME280;63211;48.548;2.704;2023-10-08T01:50:20;101856.16;;;19.20;62.60
74680;BME280;63211;48.548;2.704;2023-10-08T01:52:47;101857.63;;;19.22;62.67
74680;BME280;63211;48.548;2.704;2023-10-08T01:55:15;101862.47;;;19.20;62.99
74680;BME280;63211;48.548;2.704;2023-10-08T01:57:44;101850.69;;;19.20;62.91
74680;BME280;63211;48.548;2.704;2023-10-08T02:00:12;101851.75;;;19.19;63.21
74680;BME280;63211;48.548;2.704;2023-10-08T02:02:40;101847.97;;;19.20;63.36
74680;BME280;63211;48.548;2.704;2023-10-08T02:05:07;101843.75;;;19.17;63.21
74680;BME280;63211;48.548;2.704;2023-10-08T02:07:35;101838.28;;;19.17;63.35
74680;BME280;63211;48.548;2.704;2023-10-08T02:10:01;101836.81;;;19.15;63.41
74680;BME280;63211;48.548;2.704;2023-10-08T02:12:32;101838.91;;;19.13;63.66
74680;BME280;63211;48.548;2.704;2023-10-08T02:14:58;101830.50;;;19.14;63.51
74680;BME280;63211;48.548;2.704;2023-10-08T02:17:28;101830.69;;;19.13;63.57
74680;BME280;63211;48.548;2.704;2023-10-08T02:19:54;101827.97;;;19.13;63.51
74680;BME280;63211;48.548;2.704;2023-10-08T02:22:21;101834.28;;;19.13;63.63
74680;BME280;63211;48.548;2.704;2023-10-08T02:24:48;101827.56;;;19.09;63.48
74680;BME280;63211;48.548;2.704;2023-10-08T02:27:16;101831.78;;;19.12;63.35
74680;BME280;63211;48.548;2.704;2023-10-08T02:29:44;101820.63;;;19.13;63.26
74680;BME280;63211;48.548;2.704;2023-10-08T02:32:11;101824.19;;;19.14;62.92
74680;BME280;63211;48.548;2.704;2023-10-08T02:34:37;101828.41;;;19.16;62.54
74680;BME280;63211;48.548;2.704;2023-10-08T02:37:04;101816.44;;;19.11;62.46
74680;BME280;63211;48.548;2.704;2023-10-08T02:39:31;101829.25;;;19.17;62.44
74680;BME280;63211;48.548;2.704;2023-10-08T02:41:58;101816.66;;;19.16;62.48
74680;BME280;63211;48.548;2.704;2023-10-08T02:44:25;101819.19;;;19.11;62.93
74680;BME280;63211;48.548;2.704;2023-10-08T02:46:54;101821.91;;;19.17;62.81
74680;BME280;63211;48.548;2.704;2023-10-08T02:49:21;101819.19;;;19.17;63.07
74680;BME280;63211;48.548;2.704;2023-10-08T02:51:50;101816.44;;;19.17;63.06
74680;BME280;63211;48.548;2.704;2023-10-08T02:54:17;101808.47;;;19.16;63.13
74680;BME280;63211;48.548;2.704;2023-10-08T02:56:45;101812.25;;;19.15;63.00
74680;BME280;63211;48.548;2.704;2023-10-08T02:59:12;101812.25;;;19.15;63.13
74680;BME280;63211;48.548;2.704;2023-10-08T03:01:39;101816.84;;;19.14;63.51
74680;BME280;63211;48.548;2.704;2023-10-08T03:04:08;101808.66;;;19.14;63.38
74680;BME280;63211;48.548;2.704;2023-10-08T03:06:43;101819.59;;;19.14;63.43
74680;BME280;63211;48.548;2.704;2023-10-08T03:09:09;101821.47;;;19.14;63.25
74680;BME280;63211;48.548;2.704;2023-10-08T03:11:39;101825.03;;;19.14;63.35
74680;BME280;63211;48.548;2.704;2023-10-08T03:14:11;101813.72;;;19.11;63.32
74680;BME280;63211;48.548;2.704;2023-10-08T03:16:40;101823.59;;;19.12;63.66
74680;BME280;63211;48.548;2.704;2023-10-08T03:19:08;101812.22;;;19.08;63.50
74680;BME280;63211;48.548;2.704;2023-10-08T03:21:35;101817.88;;;19.07;63.07
74680;BME280;63211;48.548;2.704;2023-10-08T03:24:16;101822.75;;;19.11;62.71
74680;BME280;63211;48.548;2.704;2023-10-08T03:27:03;101821.91;;;19.11;62.85
74680;BME280;63211;48.548;2.704;2023-10-08T03:29:38;101816.22;;;19.12;62.11
74680;BME280;63211;48.548;2.704;2023-10-08T03:32:07;101804.03;;;19.08;62.41
74680;BME280;63211;48.548;2.704;2023-10-08T03:34:40;101810.56;;;19.14;62.15
74680;BME280;63211;48.548;2.704;2023-10-08T03:37:11;101805.94;;;19.14;62.65
74680;BME280;63211;48.548;2.704;2023-10-08T03:39:45;101821.28;;;19.15;62.53
74680;BME280;63211;48.548;2.704;2023-10-08T03:42:25;101813.72;;;19.11;62.65
74680;BME280;63211;48.548;2.704;2023-10-08T03:44:59;101825.03;;;19.14;62.71
74680;BME280;63211;48.548;2.704;2023-10-08T03:47:35;101819.78;;;19.13;62.75
74680;BME280;63211;48.548;2.704;2023-10-08T03:50:05;101816.00;;;19.14;62.80
74680;BME280;63211;48.548;2.704;2023-10-08T03:52:32;101816.44;;;19.11;62.87
74680;BME280;63211;48.548;2.704;2023-10-08T03:55:03;101820.22;;;19.10;62.90
74680;BME280;63211;48.548;2.704;2023-10-08T03:57:39;101829.84;;;19.12;62.97
74680;BME280;63211;48.548;2.704;2023-10-08T04:00:10;101830.28;;;19.09;63.09
74680;BME280;63211;48.548;2.704;2023-10-08T04:02:42;101836.41;;;19.11;63.02
74680;BME280;63211;48.548;2.704;2023-10-08T04:05:13;101831.53;;;19.07;63.20
74680;BME280;63211;48.548;2.704;2023-10-08T04:07:48;101831.97;;;19.10;63.03
74680;BME280;63211;48.548;2.704;2023-10-08T04:10:45;101840.16;;;19.10;63.25
74680;BME280;63211;48.548;2.704;2023-10-08T04:13:29;101840.38;;;19.09;63.13
74680;BME280;63211;48.548;2.704;2023-10-08T04:15:56;101833.88;;;19.10;62.42
74680;BME280;63211;48.548;2.704;2023-10-08T04:18:23;101838.47;;;19.09;62.36
74680;BME280;63211;48.548;2.704;2023-10-08T04:20:51;101830.94;;;19.11;61.98
74680;BME280;63211;48.548;2.704;2023-10-08T04:23:29;101825.25;;;19.13;62.01
74680;BME280;63211;48.548;2.704;2023-10-08T04:25:56;101827.78;;;19.14;61.79
74680;BME280;63211;48.548;2.704;2023-10-08T04:28:24;101811.38;;;19.08;61.84
74680;BME280;63211;48.548;2.704;2023-10-08T04:30:54;101823.59;;;19.12;62.12
74680;BME280;63211;48.548;2.704;2023-10-08T04:33:28;101823.16;;;19.15;62.49
74680;BME280;63211;48.548;2.704;2023-10-08T04:36:00;101824.19;;;19.14;62.31
74680;BME280;63211;48.548;2.704;2023-10-08T04:38:28;101806.78;;;19.08;62.17
74680;BME280;63211;48.548;2.704;2023-10-08T04:40:56;101801.06;;;19.03;62.25
74680;BME280;63211;48.548;2.704;2023-10-08T04:43:27;101813.47;;;19.12;62.48
74680;BME280;63211;48.548;2.704;2023-10-08T04:45:56;101802.97;;;19.03;62.50
74680;BME280;63211;48.548;2.704;2023-10-08T04:48:23;101813.72;;;19.11;62.66
74680;BME280;63211;48.548;2.704;2023-10-08T04:50:51;101804.69;;;19.10;62.43
74680;BME280;63211;48.548;2.704;2023-10-08T04:53:26;101806.78;;;19.08;62.73
74680;BME280;63211;48.548;2.704;2023-10-08T04:55:58;101811.38;;;19.08;62.92
74680;BME280;63211;48.548;2.704;2023-10-08T04:58:28;101810.75;;;19.06;62.56
74680;BME280;63211;48.548;2.704;2023-10-08T05:00:59;101814.31;;;19.06;62.46
74680;BME280;63211;48.548;2.704;2023-10-08T05:03:43;101805.69;;;19.03;62.70
74680;BME280;63211;48.548;2.704;2023-10-08T05:06:22;101799.38;;;19.02;61.89
74680;BME280;63211;48.548;2.704;2023-10-08T05:09:07;101803.59;;;19.05;61.72
74680;BME280;63211;48.548;2.704;2023-10-08T05:11:37;101806.13;;;19.06;61.83
74680;BME280;63211;48.548;2.704;2023-10-08T05:14:24;101804.88;;;19.09;61.72
74680;BME280;63211;48.548;2.704;2023-10-08T05:17:00;101761.69;;;18.78;61.64
74680;BME280;63211;48.548;2.704;2023-10-08T05:19:29;101805.53;;;19.11;61.50
74680;BME280;63211;48.548;2.704;2023-10-08T05:22:14;101808.03;;;19.12;61.53
74680;BME280;63211;48.548;2.704;2023-10-08T05:25:01;101812.44;;;19.13;61.86
74680;BME280;63211;48.548;2.704;2023-10-08T05:27:37;101813.47;;;19.12;61.70
74680;BME280;63211;48.548;2.704;2023-10-08T05:30:23;101811.81;;;19.11;61.82
74680;BME280;63211;48.548;2.704;2023-10-08T05:32:54;101808.47;;;19.09;61.66
74680;BME280;63211;48.548;2.704;2023-10-08T05:35:39;101811.81;;;19.11;61.52
74680;BME280;63211;48.548;2.704;2023-10-08T05:38:16;101818.53;;;19.09;61.38
74680;BME280;63211;48.548;2.704;2023-10-08T05:40:50;101818.72;;;19.07;61.78
74680;BME280;63211;48.548;2.704;2023-10-08T05:43:52;101816.22;;;19.06;61.87
74680;BME280;63211;48.548;2.704;2023-10-08T05:46:39;101804.19;;;19.00;61.82
74680;BME280;63211;48.548;2.704;2023-10-08T05:49:12;101820.63;;;19.07;61.67
74680;BME280;63211;48.548;2.704;2023-10-08T05:52:02;101815.13;;;19.00;61.28
74680;BME280;63211;48.548;2.704;2023-10-08T05:54:50;101823.50;;;18.99;61.79
74680;BME280;63211;48.548;2.704;2023-10-08T05:57:35;101830.66;;;19.00;61.50
74680;BME280;63211;48.548;2.704;2023-10-08T06:00:12;101834.03;;;19.02;61.50
74680;BME280;63211;48.548;2.704;2023-10-08T06:02:57;101829.81;;;18.99;61.32
74680;BME280;63211;48.548;2.704;2023-10-08T06:05:58;101838.88;;;19.06;61.56
74680;BME280;63211;48.548;2.704;2023-10-08T06:08:48;101838.69;;;19.08;61.37
74680;BME280;63211;48.548;2.704;2023-10-08T06:11:33;101836.56;;;19.03;61.55
74680;BME280;63211;48.548;2.704;2023-10-08T06:14:08;101838.03;;;19.06;61.53
74680;BME280;63211;48.548;2.704;2023-10-08T06:16:42;101849.81;;;19.06;61.48
74680;BME280;63211;48.548;2.704;2023-10-08T06:19:10;101854.00;;;19.09;61.54
74680;BME280;63211;48.548;2.704;2023-10-08T06:21:38;101850.25;;;19.10;61.40
74680;BME280;63211;48.548;2.704;2023-10-08T06:24:04;101852.13;;;19.09;61.28
74680;BME280;63211;48.548;2.704;2023-10-08T06:26:35;101851.28;;;19.09;61.42
74680;BME280;63211;48.548;2.704;2023-10-08T06:29:09;101860.53;;;19.08;61.60
74680;BME280;63211;48.548;2.704;2023-10-08T06:31:45;101858.63;;;19.08;61.21
74680;BME280;63211;48.548;2.704;2023-10-08T06:34:17;101854.81;;;19.03;61.26
74680;BME280;63211;48.548;2.704;2023-10-08T06:36:47;101862.59;;;19.06;61.36
74680;BME280;63211;48.548;2.704;2023-10-08T06:39:13;101866.19;;;19.06;61.33
74680;BME280;63211;48.548;2.704;2023-10-08T06:41:44;101871.84;;;19.05;61.23
74680;BME280;63211;48.548;2.704;2023-10-08T06:44:13;101867.63;;;19.02;61.10
74680;BME280;63211;48.548;2.704;2023-10-08T06:46:41;101860.03;;;18.98;61.26
74680;BME280;63211;48.548;2.704;2023-10-08T06:49:08;101861.31;;;19.02;61.08
74680;BME280;63211;48.548;2.704;2023-10-08T06:51:39;101863.84;;;19.03;61.08
74680;BME280;63211;48.548;2.704;2023-10-08T06:54:07;101868.91;;;19.06;61.25
74680;BME280;63211;48.548;2.704;2023-10-08T06:56:36;101867.88;;;19.07;61.09
74680;BME280;63211;48.548;2.704;2023-10-08T06:59:02;101869.75;;;19.07;61.08
74680;BME280;63211;48.548;2.704;2023-10-08T07:01:32;101871.00;;;19.04;61.08
74680;BME280;63211;48.548;2.704;2023-10-08T07:04:05;101868.91;;;19.06;61.31
74680;BME280;63211;48.548;2.704;2023-10-08T07:06:32;101867.88;;;19.07;61.37
74680;BME280;63211;48.548;2.704;2023-10-08T07:09:00;101872.47;;;19.07;61.25
74680;BME280;63211;48.548;2.704;2023-10-08T07:11:30;101869.75;;;19.07;61.26
74680;BME280;63211;48.548;2.704;2023-10-08T07:14:00;101865.34;;;19.06;60.97
74680;BME280;63211;48.548;2.704;2023-10-08T07:16:26;101876.91;;;19.08;61.04
74680;BME280;63211;48.548;2.704;2023-10-08T07:18:55;101874.16;;;19.08;61.22
74680;BME280;63211;48.548;2.704;2023-10-08T07:21:27;101877.94;;;19.07;61.00
74680;BME280;63211;48.548;2.704;2023-10-08T07:24:03;101867.81;;;19.01;61.03
74680;BME280;63211;48.548;2.704;2023-10-08T07:26:35;101853.94;;;18.96;60.79
74680;BME280;63211;48.548;2.704;2023-10-08T07:29:03;101873.31;;;19.07;60.95
74680;BME280;63211;48.548;2.704;2023-10-08T07:31:34;101869.56;;;19.08;60.81
74680;BME280;63211;48.548;2.704;2023-10-08T07:34:03;101868.47;;;19.03;60.84
74680;BME280;63211;48.548;2.704;2023-10-08T07:36:44;101872.69;;;19.05;60.95
74680;BME280;63211;48.548;2.704;2023-10-08T07:39:10;101869.94;;;19.05;61.00
74680;BME280;63211;48.548;2.704;2023-10-08T07:41:51;101874.72;;;18.97;61.69
74680;BME280;63211;48.548;2.704;2023-10-08T07:44:19;101862.75;;;18.98;61.50
74680;BME280;63211;48.548;2.704;2023-10-08T07:46:47;101867.19;;;18.99;61.95
74680;BME280;63211;48.548;2.704;2023-10-08T07:49:15;101866.53;;;18.97;62.60
74680;BME280;63211;48.548;2.704;2023-10-08T07:51:42;101865.88;;;18.88;63.41
74680;BME280;63211;48.548;2.704;2023-10-08T07:54:17;101870.94;;;18.91;63.68
74680;BME280;63211;48.548;2.704;2023-10-08T07:56:48;101858.53;;;18.88;63.39
74680;BME280;63211;48.548;2.704;2023-10-08T07:59:16;101862.97;;;18.96;63.45
74680;BME280;63211;48.548;2.704;2023-10-08T08:01:43;101857.06;;;18.93;63.21
74680;BME280;63211;48.548;2.704;2023-10-08T08:04:10;101873.72;;;19.04;63.00
74680;BME280;63211;48.548;2.704;2023-10-08T08:06:48;101880.47;;;19.08;62.67
74680;BME280;63211;48.548;2.704;2023-10-08T08:09:16;101874.38;;;19.06;62.13
74680;BME280;63211;48.548;2.704;2023-10-08T08:11:45;101888.25;;;19.11;62.13
74680;BME280;63211;48.548;2.704;2023-10-08T08:14:13;101879.63;;;19.08;61.69
74680;BME280;63211;48.548;2.704;2023-10-08T08:16:43;101889.91;;;19.12;61.71
74680;BME280;63211;48.548;2.704;2023-10-08T08:19:19;101891.59;;;19.13;61.54
74680;BME280;63211;48.548;2.704;2023-10-08T08:21:53;101888.03;;;19.13;61.46
74680;BME280;63211;48.548;2.704;2023-10-08T08:24:20;101880.91;;;19.12;61.22
74680;BME280;63211;48.548;2.704;2023-10-08T08:27:01;101878.59;;;19.09;61.56
74680;BME280;63211;48.548;2.704;2023-10-08T08:29:34;101891.84;;;19.12;61.27
74680;BME280;63211;48.548;2.704;2023-10-08T08:32:09;101891.84;;;19.12;61.36
74680;BME280;63211;48.548;2.704;2023-10-08T08:34:42;101880.91;;;19.12;61.02
74680;BME280;63211;48.548;2.704;2023-10-08T08:37:14;101884.25;;;19.14;61.08
74680;BME280;63211;48.548;2.704;2023-10-08T08:39:41;101886.78;;;19.09;61.39
74680;BME280;63211;48.548;2.704;2023-10-08T08:42:08;101897.88;;;19.07;61.32
74680;BME280;63211;48.548;2.704;2023-10-08T08:44:37;101891.59;;;19.07;61.50
74680;BME280;63211;48.548;2.704;2023-10-08T08:47:10;101902.53;;;19.13;61.15
74680;BME280;63211;48.548;2.704;2023-10-08T08:49:40;101899.78;;;19.13;61.24
74680;BME280;63211;48.548;2.704;2023-10-08T08:52:08;101907.78;;;19.15;61.11
74680;BME280;63211;48.548;2.704;2023-10-08T08:54:36;101908.81;;;19.14;61.25
74680;BME280;63211;48.548;2.704;2023-10-08T08:57:04;101900.41;;;19.09;61.73
74680;BME280;63211;48.548;2.704;2023-10-08T08:59:32;101910.09;;;19.11;61.90
74680;BME280;63211;48.548;2.704;2023-10-08T09:02:02;101908.22;;;19.12;61.92
74680;BME280;63211;48.548;2.704;2023-10-08T09:04:29;101910.50;;;19.15;61.69
74680;BME280;63211;48.548;2.704;2023-10-08T09:06:59;101914.09;;;19.15;62.45
74680;BME280;63211;48.548;2.704;2023-10-08T09:09:31;101900.63;;;19.14;62.00
74680;BME280;63211;48.548;2.704;2023-10-08T09:11:59;101878.34;;;19.04;62.30
74680;BME280;63211;48.548;2.704;2023-10-08T09:14:27;101900.63;;;19.14;62.42
74680;BME280;63211;48.548;2.704;2023-10-08T09:16:57;101899.19;;;19.18;62.72
74680;BME280;63211;48.548;2.704;2023-10-08T09:19:25;101885.94;;;19.15;62.67
74680;BME280;63211;48.548;2.704;2023-10-08T09:22:01;101888.28;;;19.18;62.59
74680;BME280;63211;48.548;2.704;2023-10-08T09:24:30;101889.97;;;19.19;62.74
74680;BME280;63211;48.548;2.704;2023-10-08T09:27:00;101889.75;;;19.20;62.50
74680;BME280;63211;48.548;2.704;2023-10-08T09:29:27;101891.44;;;19.21;62.37
74680;BME280;63211;48.548;2.704;2023-10-08T09:31:56;101891.25;;;19.23;62.17
74680;BME280;63211;48.548;2.704;2023-10-08T09:34:26;101891.25;;;19.23;61.99
74680;BME280;63211;48.548;2.704;2023-10-08T09:36:55;101875.47;;;19.12;62.08
74680;BME280;63211;48.548;2.704;2023-10-08T09:39:23;101887.69;;;19.22;62.44
74680;BME280;63211;48.548;2.704;2023-10-08T09:41:53;101880.72;;;19.20;62.14
74680;BME280;63211;48.548;2.704;2023-10-08T09:44:22;101877.78;;;19.21;62.41
74680;BME280;63211;48.548;2.704;2023-10-08T09:46:52;101878.00;;;19.20;62.25
74680;BME280;63211;48.548;2.704;2023-10-08T09:49:28;101882.84;;;19.25;62.39
74680;BME280;63211;48.548;2.704;2023-10-08T09:52:00;101882.00;;;19.24;62.15
74680;BME280;63211;48.548;2.704;2023-10-08T09:54:28;101879.09;;;19.26;62.07
74680;BME280;63211;48.548;2.704;2023-10-08T09:56:58;101870.44;;;19.22;62.04
74680;BME280;63211;48.548;2.704;2023-10-08T09:59:27;101876.34;;;19.26;62.14
74680;BME280;63211;48.548;2.704;2023-10-08T10:01:55;101879.72;;;19.28;62.01
74680;BME280;63211;48.548;2.704;2023-10-08T10:04:25;101874.25;;;19.28;62.01
74680;BME280;63211;48.548;2.704;2023-10-08T10:06:54;101876.34;;;19.26;62.01
74680;BME280;63211;48.548;2.704;2023-10-08T10:09:24;101869.16;;;19.18;61.80
74680;BME280;63211;48.548;2.704;2023-10-08T10:11:53;101875.31;;;19.27;61.78
74680;BME280;63211;48.548;2.704;2023-10-08T10:14:22;101868.75;;;19.21;62.02
74680;BME280;63211;48.548;2.704;2023-10-08T10:17:08;101875.31;;;19.27;62.05
74680;BME280;63211;48.548;2.704;2023-10-08T10:19:36;101869.00;;;19.26;61.70
74680;BME280;63211;48.548;2.704;2023-10-08T10:22:03;101869.00;;;19.26;61.71
74680;BME280;63211;48.548;2.704;2023-10-08T10:24:33;101871.34;;;19.29;61.66
74680;BME280;63211;48.548;2.704;2023-10-08T10:27:10;101878.28;;;19.32;61.68
74680;BME280;63211;48.548;2.704;2023-10-08T10:29:37;101877.63;;;19.30;61.64
74680;BME280;63211;48.548;2.704;2023-10-08T10:32:06;101873.03;;;19.30;61.63
74680;BME280;63211;48.548;2.704;2023-10-08T10:34:39;101870.28;;;19.30;61.63
74680;BME280;63211;48.548;2.704;2023-10-08T10:37:05;101856.41;;;19.25;61.64
74680;BME280;63211;48.548;2.704;2023-10-08T10:39:35;101862.91;;;19.24;61.56
74680;BME280;63211;48.548;2.704;2023-10-08T10:42:06;101866.50;;;19.31;61.49
74680;BME280;63211;48.548;2.704;2023-10-08T10:44:45;101866.31;;;19.33;61.80
74680;BME280;63211;48.548;2.704;2023-10-08T10:47:16;101850.94;;;19.25;61.75
74680;BME280;63211;48.548;2.704;2023-10-08T10:49:52;101856.44;;;19.32;61.68
74680;BME280;63211;48.548;2.704;2023-10-08T10:52:20;101840.41;;;19.22;61.70
74680;BME280;63211;48.548;2.704;2023-10-08T10:54:59;101854.94;;;19.29;61.76
74680;BME280;63211;48.548;2.704;2023-10-08T10:57:44;101844.84;;;19.23;61.84
74680;BME280;63211;48.548;2.704;2023-10-08T11:00:19;101857.69;;;19.29;61.72
74680;BME280;63211;48.548;2.704;2023-10-08T11:03:14;101857.69;;;19.29;61.95
74680;BME280;63211;48.548;2.704;2023-10-08T11:05:51;101855.16;;;19.28;61.97
74680;BME280;63211;48.548;2.704;2023-10-08T11:08:21;101854.94;;;19.29;61.88
74680;BME280;63211;48.548;2.704;2023-10-08T11:10:49;101858.94;;;19.27;61.66
74680;BME280;63211;48.548;2.704;2023-10-08T11:13:19;101865.03;;;19.29;61.78
74680;BME280;63211;48.548;2.704;2023-10-08T11:15:47;101864.19;;;19.28;61.86
74680;BME280;63211;48.548;2.704;2023-10-08T11:18:19;101857.25;;;19.26;61.67
74680;BME280;63211;48.548;2.704;2023-10-08T11:20:49;101854.94;;;19.29;61.73
74680;BME280;63211;48.548;2.704;2023-10-08T11:23:32;101853.25;;;19.28;61.72
74680;BME280;63211;48.548;2.704;2023-10-08T11:26:00;101851.38;;;19.29;61.75
74680;BME280;63211;48.548;2.704;2023-10-08T11:28:29;101816.59;;;19.03;61.80
74680;BME280;63211;48.548;2.704;2023-10-08T11:30:56;101852.88;;;19.31;61.70
74680;BME280;63211;48.548;2.704;2023-10-08T11:33:31;101844.22;;;19.28;61.53
74680;BME280;63211;48.548;2.704;2023-10-08T11:35:58;101848.25;;;19.32;61.69
74680;BME280;63211;48.548;2.704;2023-10-08T11:38:25;101844.88;;;19.30;62.00
74680;BME280;63211;48.548;2.704;2023-10-08T11:40:54;101837.72;;;19.29;61.92
74680;BME280;63211;48.548;2.704;2023-10-08T11:43:23;101837.28;;;19.25;61.94
74680;BME280;63211;48.548;2.704;2023-10-08T11:45:50;101832.06;;;19.30;61.79
74680;BME280;63211;48.548;2.704;2023-10-08T11:48:17;101821.34;;;19.29;62.05
74680;BME280;63211;48.548;2.704;2023-10-08T11:50:52;101817.13;;;19.26;61.89
74680;BME280;63211;48.548;2.704;2023-10-08T11:53:18;101826.81;;;19.29;62.26
74680;BME280;63211;48.548;2.704;2023-10-08T11:55:45;101816.72;;;19.29;62.02
74680;BME280;63211;48.548;2.704;2023-10-08T11:58:13;101818.41;;;19.30;62.22
74680;BME280;63211;48.548;2.704;2023-10-08T12:00:44;101807.88;;;19.27;62.21
74680;BME280;63211;48.548;2.704;2023-10-08T12:03:11;101800.75;;;19.26;62.05
74680;BME280;63211;48.548;2.704;2023-10-08T12:05:40;101803.91;;;19.30;62.21
74680;BME280;63211;48.548;2.704;2023-10-08T12:08:14;101802.22;;;19.29;62.00
74680;BME280;63211;48.548;2.704;2023-10-08T12:10:42;101799.94;;;19.32;62.18
74680;BME280;63211;48.548;2.704;2023-10-08T12:13:11;101792.16;;;19.29;61.96
74680;BME280;63211;48.548;2.704;2023-10-08T12:15:38;101792.78;;;19.31;61.93
74680;BME280;63211;48.548;2.704;2023-10-08T12:18:10;101786.06;;;19.27;62.23
74680;BME280;63211;48.548;2.704;2023-10-08T12:20:41;101781.88;;;19.31;62.00
74680;BME280;63211;48.548;2.704;2023-10-08T12:23:10;101780.59;;;19.34;62.09
74680;BME280;63211;48.548;2.704;2023-10-08T12:25:45;101779.34;;;19.36;62.04
74680;BME280;63211;48.548;2.704;2023-10-08T12:28:17;101766.09;;;19.33;62.07
74680;BME280;63211;48.548;2.704;2023-10-08T12:30:44;101768.63;;;19.35;61.97
74680;BME280;63211;48.548;2.704;2023-10-08T12:33:11;101770.50;;;19.34;61.92
74680;BME280;63211;48.548;2.704;2023-10-08T12:35:41;101763.34;;;19.33;62.10
74680;BME280;63211;48.548;2.704;2023-10-08T12:38:08;101758.75;;;19.34;61.80
74680;BME280;63211;48.548;2.704;2023-10-08T12:40:35;101763.16;;;19.35;61.83
74680;BME280;63211;48.548;2.704;2023-10-08T12:43:14;101757.50;;;19.30;62.18
74680;BME280;63211;48.548;2.704;2023-10-08T12:45:45;101745.72;;;19.29;62.11
74680;BME280;63211;48.548;2.704;2023-10-08T12:48:18;101751.63;;;19.33;62.13
74680;BME280;63211;48.548;2.704;2023-10-08T12:50:45;101742.78;;;19.31;62.33
74680;BME280;63211;48.548;2.704;2023-10-08T12:53:19;101748.06;;;19.32;62.28
74680;BME280;63211;48.548;2.704;2023-10-08T12:55:49;101731.25;;;19.29;62.20
74680;BME280;63211;48.548;2.704;2023-10-08T12:58:20;101735.66;;;19.30;62.18
74680;BME280;63211;48.548;2.704;2023-10-08T13:00:51;101733.31;;;19.33;62.32
74680;BME280;63211;48.548;2.704;2023-10-08T13:03:23;101738.56;;;19.35;62.23
74680;BME280;63211;48.548;2.704;2023-10-08T13:05:50;101740.47;;;19.34;62.17
74680;BME280;63211;48.548;2.704;2023-10-08T13:08:18;101724.72;;;19.30;62.12
74680;BME280;63211;48.548;2.704;2023-10-08T13:10:45;101735.00;;;19.34;62.17
74680;BME280;63211;48.548;2.704;2023-10-08T13:13:12;101727.66;;;19.35;62.34